Home > Products > Valid Products > TAF

000
FTUS45 KPSR 051721
TAFIWA
TAF
KIWA 051721Z 0518/0618 17006KT P6SM FEW050 SCT120
     FM052100 25008KT P6SM FEW050 BKN080
     FM060700 14007KT P6SM FEW100 BKN200=



000
FTUS45 KPSR 051721
TAFBLH
TAF
KBLH 051721Z 0518/0618 18008KT P6SM SCT250
     FM052000 18012G20KT P6SM FEW080 SCT250
     FM060300 23014KT P6SM FEW120 BKN200
     FM060800 19008KT P6SM BKN200=



000
FTUS45 KPSR 051721
TAFIPL
TAF
KIPL 051721Z 0518/0618 VRB05KT P6SM SCT250
     FM052000 26010KT P6SM BKN250
     FM060200 26014G24KT P6SM BKN200
     FM060800 27012KT P6SM BKN200=



000
FTUS45 KPSR 051721
TAFIWA
TAF
KIWA 051721Z 0518/0618 17006KT P6SM FEW050 SCT120
     FM052100 25008KT P6SM FEW050 BKN080
     FM060700 14007KT P6SM FEW100 BKN200=



000
FTUS45 KPSR 051721
TAFPHX
TAF
KPHX 051721Z 0518/0618 19006KT P6SM FEW050 SCT080 SCT100
     FM052100 26010KT P6SM FEW050 BKN080
     FM060700 12006KT P6SM FEW120 BKN200=



000
FTUS45 KPSR 051503 AAA
TAFPHX
TAF AMD
KPHX 051503Z 0515/0612 17006KT P6SM VCSH FEW080 BKN100
     FM051700 19006KT P6SM SCT080 SCT100
     FM052100 26010KT P6SM BKN080
     FM060700 12006KT P6SM FEW120 BKN200=



000
FTUS45 KPSR 051503 AAA
TAFPHX
TAF AMD
KPHX 051503Z 0515/0612 17006KT P6SM VCSH FEW080 BKN100
     FM051700 19006KT P6SM SCT080 SCT100
     FM052100 26010KT P6SM BKN080
     FM060700 12006KT P6SM FEW120 BKN200=



000
FTUS45 KPSR 051120
TAFBLH
TAF
KBLH 051120Z 0512/0612 VRB05KT P6SM FEW080 SCT120 BKN200
     FM051500 18008KT P6SM SCT120 BKN200
     FM052000 18012G22KT P6SM FEW080 SCT150
     FM060300 23012KT P6SM FEW120 BKN250=



000
FTUS45 KPSR 051120
TAFIWA
TAF
KIWA 051120Z 0512/0612 13007KT P6SM VCSH SCT070 BKN100 BKN150
     FM051800 17006KT P6SM SCT070 SCT120 SCT150
     FM052100 25008KT P6SM FEW070 SCT100
     FM060700 14007KT P6SM FEW100 BKN250
      AMD LTD TO CLD VIS AND WIND TIL 051300=



000
FTUS45 KPSR 051120
TAFBLH
TAF
KBLH 051120Z 0512/0612 VRB05KT P6SM FEW080 SCT120 BKN200
     FM051500 18008KT P6SM SCT120 BKN200
     FM052000 18012G22KT P6SM FEW080 SCT150
     FM060300 23012KT P6SM FEW120 BKN250=



000
FTUS45 KPSR 051120
TAFIWA
TAF
KIWA 051120Z 0512/0612 13007KT P6SM VCSH SCT070 BKN100 BKN150
     FM051800 17006KT P6SM SCT070 SCT120 SCT150
     FM052100 25008KT P6SM FEW070 SCT100
     FM060700 14007KT P6SM FEW100 BKN250
      AMD LTD TO CLD VIS AND WIND TIL 051300=



000
FTUS45 KPSR 051120
TAFIWA
TAF
KIWA 051120Z 0512/0612 13007KT P6SM VCSH SCT070 BKN100 BKN150
     FM051800 17006KT P6SM SCT070 SCT120 SCT150
     FM052100 25008KT P6SM FEW070 SCT100
     FM060700 14007KT P6SM FEW100 BKN250
      AMD LTD TO CLD VIS AND WIND TIL 051300=



000
FTUS45 KPSR 051120
TAFIPL
TAF
KIPL 051120Z 0512/0612 26009KT P6SM FEW250
     FM051700 16008KT P6SM SCT250
     FM060100 26015G25KT P6SM BKN250
     FM060800 27012KT P6SM BKN250=



000
FTUS45 KPSR 051120
TAFPHX
TAF
KPHX 051120Z 0512/0612 12006KT P6SM VCSH FEW060 BKN100 BKN150
     FM051700 19006KT P6SM SCT060 SCT100
     FM052200 26009KT P6SM FEW080 SCT120 SCT250
     FM060900 12006KT P6SM FEW120 BKN250=



000
FTUS45 KPSR 051120
TAFIPL
TAF
KIPL 051120Z 0512/0612 26009KT P6SM FEW250
     FM051700 16008KT P6SM SCT250
     FM060100 26015G25KT P6SM BKN250
     FM060800 27012KT P6SM BKN250=



000
FTUS45 KPSR 051120
TAFPHX
TAF
KPHX 051120Z 0512/0612 12006KT P6SM VCSH FEW060 BKN100 BKN150
     FM051700 19006KT P6SM SCT060 SCT100
     FM052200 26009KT P6SM FEW080 SCT120 SCT250
     FM060900 12006KT P6SM FEW120 BKN250=



000
FTUS45 KPSR 050910 AAA
TAFBLH
TAF AMD
KBLH 050910Z 0509/0606 VRB05KT P6SM FEW080 SCT120 BKN200
     FM051500 18008KT P6SM SCT100 BKN200
     FM052000 18012G22KT P6SM FEW080 SCT150=



000
FTUS45 KPSR 050910 AAA
TAFBLH
TAF AMD
KBLH 050910Z 0509/0606 VRB05KT P6SM FEW080 SCT120 BKN200
     FM051500 18008KT P6SM SCT100 BKN200
     FM052000 18012G22KT P6SM FEW080 SCT150=



000
FTUS45 KPSR 050909 AAA
TAFIPL
TAF AMD
KIPL 050909Z 0509/0606 20010KT P6SM SCT250
     FM060100 26015G25KT P6SM SCT250=



000
FTUS45 KPSR 050835 AAB
TAFPHX
TAF AMD
KPHX 050835Z 0509/0606 12006KT P6SM VCSH FEW050 BKN090 OVC150
     FM051700 19006KT P6SM SCT060 SCT100
     FM052200 26009KT P6SM SCT100=



000
FTUS45 KPSR 050723 AAA
TAFIWA
TAF AMD
KIWA 050723Z 0507/0606 13007KT P6SM VCSH SCT070 BKN100 OVC150
      TEMPO 0507/0510 VRB05KT
     FM051800 17006KT P6SM FEW080 SCT120 SCT150
     FM052100 25008KT P6SM SCT100
      AMD LTD TO CLD VIS AND WIND TIL 051300=



000
FTUS45 KPSR 050723 AAA
TAFIWA
TAF AMD
KIWA 050723Z 0507/0606 13007KT P6SM VCSH SCT070 BKN100 OVC150
      TEMPO 0507/0510 VRB05KT
     FM051800 17006KT P6SM FEW080 SCT120 SCT150
     FM052100 25008KT P6SM SCT100
      AMD LTD TO CLD VIS AND WIND TIL 051300=



000
FTUS45 KPSR 050718 AAA
TAFPHX
TAF AMD
KPHX 050718Z 0507/0606 11005KT P6SM VCSH SCT060 BKN090 OVC150
     FM051200 14007KT P6SM VCSH SCT050 BKN090 BKN150
     FM051700 19006KT P6SM SCT060 SCT100
     FM052200 26009KT P6SM SCT100=



000
FTUS45 KPSR 050718 AAA
TAFPHX
TAF AMD
KPHX 050718Z 0507/0606 11005KT P6SM VCSH SCT060 BKN090 OVC150
     FM051200 14007KT P6SM VCSH SCT050 BKN090 BKN150
     FM051700 19006KT P6SM SCT060 SCT100
     FM052200 26009KT P6SM SCT100=



000
FTUS45 KPSR 050539
TAFIWA
TAF
KIWA 050539Z 0506/0606 12006KT P6SM SCT100 BKN150
     FM050900 13007KT P6SM VCSH SCT070 BKN100 OVC150
     FM051800 17006KT P6SM FEW080 SCT120 SCT150
     FM052100 25008KT P6SM SCT100
      AMD LTD TO CLD VIS AND WIND TIL 051300=



000
FTUS45 KPSR 050539
TAFIWA
TAF
KIWA 050539Z 0506/0606 12006KT P6SM SCT100 BKN150
     FM050900 13007KT P6SM VCSH SCT070 BKN100 OVC150
     FM051800 17006KT P6SM FEW080 SCT120 SCT150
     FM052100 25008KT P6SM SCT100
      AMD LTD TO CLD VIS AND WIND TIL 051300=



000
FTUS45 KPSR 050539
TAFPHX
TAF
KPHX 050539Z 0506/0606 27012KT P6SM FEW070 SCT100 BKN120
     FM050900 VRB06KT P6SM VCSH SCT070 BKN100 OVC150
     FM051200 14007KT P6SM VCSH SCT050 BKN090 BKN150
     FM051700 19006KT P6SM SCT060 SCT100
     FM052200 26009KT P6SM SCT100=



000
FTUS45 KPSR 050539
TAFIWA
TAF
KIWA 050539Z 0506/0606 12006KT P6SM SCT100 BKN150
     FM050900 13007KT P6SM VCSH SCT070 BKN100 OVC150
     FM051800 17006KT P6SM FEW080 SCT120 SCT150
     FM052100 25008KT P6SM SCT100
      AMD LTD TO CLD VIS AND WIND TIL 051300=



000
FTUS45 KPSR 050539
TAFIPL
TAF
KIPL 050539Z 0506/0606 26010G20KT P6SM FEW100 SCT150
      TEMPO 0507/0509 VRB06KT
     FM050900 26008KT P6SM SCT250
     FM051800 20012KT P6SM SCT250
     FM060100 26015G25KT P6SM SCT250=



000
FTUS45 KPSR 050539
TAFBLH
TAF
KBLH 050539Z 0506/0606 18010KT P6SM VCTS FEW060CB BKN100 OVC120
      TEMPO 0506/0508 VRB15G25KT -TSRA BKN060CB
     FM050900 18008KT P6SM SCT100 BKN200
     FM052000 18012G22KT P6SM FEW080 SCT150=



000
FTUS45 KPSR 050310 AAC
TAFPHX
TAF AMD
KPHX 050310Z 0503/0524 27012KT P6SM FEW050 SCT120 BKN200
      TEMPO 0503/0504 27015G25KT
     FM050400 27008KT P6SM VCSH SCT050 BKN120 OVC150
     FM051200 14007KT P6SM SCT050 BKN100 BKN150
     FM051700 19006KT P6SM SCT060 SCT100
     FM052200 26009KT P6SM SCT100=



000
FTUS45 KPSR 050310 AAC
TAFPHX
TAF AMD
KPHX 050310Z 0503/0524 27012KT P6SM FEW050 SCT120 BKN200
      TEMPO 0503/0504 27015G25KT
     FM050400 27008KT P6SM VCSH SCT050 BKN120 OVC150
     FM051200 14007KT P6SM SCT050 BKN100 BKN150
     FM051700 19006KT P6SM SCT060 SCT100
     FM052200 26009KT P6SM SCT100=



000
FTUS45 KPSR 050306 AAC
TAFBLH
TAF AMD
KBLH 050306Z 0503/0524 06012G22KT P6SM VCTS FEW070CB BKN120
      TEMPO 0503/0505 VRB15G25KT 6SM TSRA BKN070CB
     FM050600 VRB06KT P6SM SCT100 BKN200=



000
FTUS45 KPSR 050255 AAB
TAFIWA
TAF AMD
KIWA 050255Z 0503/0524 27010KT P6SM SCT090 BKN120
      TEMPO 0503/0505 27015G25KT
     FM050600 VRB06KT P6SM VCSH SCT070 BKN100
     FM051600 17006KT P6SM SCT080
     FM052100 25008KT P6SM SCT100=



000
FTUS45 KPSR 050255 AAB
TAFIWA
TAF AMD
KIWA 050255Z 0503/0524 27010KT P6SM SCT090 BKN120
      TEMPO 0503/0505 27015G25KT
     FM050600 VRB06KT P6SM VCSH SCT070 BKN100
     FM051600 17006KT P6SM SCT080
     FM052100 25008KT P6SM SCT100=



000
FTUS45 KPSR 050255 AAB
TAFIWA
TAF AMD
KIWA 050255Z 0503/0524 27010KT P6SM SCT090 BKN120
      TEMPO 0503/0505 27015G25KT
     FM050600 VRB06KT P6SM VCSH SCT070 BKN100
     FM051600 17006KT P6SM SCT080
     FM052100 25008KT P6SM SCT100=



000
FTUS45 KPSR 050209 AAB
TAFPHX
TAF AMD
KPHX 050209Z 0502/0524 27012KT P6SM FEW070 SCT120 BKN250
      TEMPO 0502/0503 27015G25KT
     FM050400 27008KT P6SM VCSH SCT050 BKN090 OVC150
     FM050800 14010KT P6SM VCSH SCT050 BKN080 BKN120
     FM051700 19006KT P6SM SCT060 SCT100
     FM052200 26009KT P6SM SCT100=



000
FTUS45 KPSR 050110 AAB
TAFBLH
TAF AMD
KBLH 050110Z 0501/0524 14010KT P6SM VCTS FEW060CB BKN120
     FM050300 20012KT P6SM FEW120 BKN200=



000
FTUS45 KPSR 050108 AAA
TAFPHX
TAF AMD
KPHX 050108Z 0501/0524 27010KT P6SM FEW070 SCT120 BKN250
     FM050500 22008KT P6SM -SHRA VCTS SCT050 BKN070CB OVC100
     FM050800 14010KT P6SM VCSH SCT050 BKN080 BKN120
     FM051700 19006KT P6SM SCT060 SCT100
     FM052200 26009KT P6SM SCT100=



000
FTUS45 KPSR 050108 AAA
TAFPHX
TAF AMD
KPHX 050108Z 0501/0524 27010KT P6SM FEW070 SCT120 BKN250
     FM050500 22008KT P6SM -SHRA VCTS SCT050 BKN070CB OVC100
     FM050800 14010KT P6SM VCSH SCT050 BKN080 BKN120
     FM051700 19006KT P6SM SCT060 SCT100
     FM052200 26009KT P6SM SCT100=



000
FTUS45 KPSR 050056 AAA
TAFIWA
TAF AMD
KIWA 050056Z 0501/0524 27010KT P6SM SCT090 BKN120
      TEMPO 0501/0502 VRB06KT
     FM050600 16009KT P6SM -SHRA VCTS FEW040CB BKN080
     FM050900 12006KT P6SM VCSH SCT060 SCT100
     FM051600 17006KT P6SM SCT080
     FM052100 25008KT P6SM SCT100=



000
FTUS45 KPSR 050056 AAA
TAFIWA
TAF AMD
KIWA 050056Z 0501/0524 27010KT P6SM SCT090 BKN120
      TEMPO 0501/0502 VRB06KT
     FM050600 16009KT P6SM -SHRA VCTS FEW040CB BKN080
     FM050900 12006KT P6SM VCSH SCT060 SCT100
     FM051600 17006KT P6SM SCT080
     FM052100 25008KT P6SM SCT100=



000
FTUS45 KPSR 050056 AAA
TAFIWA
TAF AMD
KIWA 050056Z 0501/0524 27010KT P6SM SCT090 BKN120
      TEMPO 0501/0502 VRB06KT
     FM050600 16009KT P6SM -SHRA VCTS FEW040CB BKN080
     FM050900 12006KT P6SM VCSH SCT060 SCT100
     FM051600 17006KT P6SM SCT080
     FM052100 25008KT P6SM SCT100=



000
FTUS45 KPSR 050056 AAA
TAFIWA
TAF AMD
KIWA 050056Z 0501/0524 27010KT P6SM SCT090 BKN120
      TEMPO 0501/0502 VRB06KT
     FM050600 16009KT P6SM -SHRA VCTS FEW040CB BKN080
     FM050900 12006KT P6SM VCSH SCT060 SCT100
     FM051600 17006KT P6SM SCT080
     FM052100 25008KT P6SM SCT100=



000
FTUS45 KPSR 042346 AAA
TAFBLH
TAF AMD
KBLH 042346Z 0500/0524 14012G18KT P6SM VCTS SCT060CB BKN080 OVC120
     FM050300 20012KT P6SM FEW120 BKN200=



000
FTUS45 KPSR 042346 AAA
TAFBLH
TAF AMD
KBLH 042346Z 0500/0524 14012G18KT P6SM VCTS SCT060CB BKN080 OVC120
     FM050300 20012KT P6SM FEW120 BKN200=



000
FTUS45 KPSR 042345 CCA
TAFIPL
TAF COR
KIPL 042345Z 0500/0524 14008KT P6SM VCSH FEW060 BKN090
     FM050200 26012KT P6SM SCT200=



000
FTUS45 KPSR 042338
TAFIWA
TAF
KIWA 042338Z 0500/0524 30010G18KT P6SM VCTS SCT070CB BKN120
     FM050100 14012G20KT P6SM -TSRA SCT040 BKN060CB
     FM050600 16009KT P6SM -SHRA VCTS SCT040 BKN080CB
     FM050900 12006KT P6SM VCSH SCT060 SCT100
     FM051600 17006KT P6SM SCT080
     FM052100 25008KT P6SM SCT100=



000
FTUS45 KPSR 042338
TAFPHX
TAF
KPHX 042338Z 0500/0524 27010G18KT P6SM VCTS FEW050 SCT060CB BKN120
     FM050500 22008KT P6SM -SHRA VCTS SCT050 BKN070CB OVC100
     FM050800 14010KT P6SM VCSH SCT050 BKN080 BKN120
     FM051700 19006KT P6SM SCT060 SCT100
     FM052200 26009KT P6SM SCT100=



000
FTUS45 KPSR 042338
TAFBLH
TAF
KBLH 042338Z 0500/0524 19012G18KT P6SM VCTS SCT060CB BKN080
     FM050200 21012KT P6SM FEW120 BKN200=



000
FTUS45 KPSR 042338
TAFIPL
TAF
KIPL 042338Z 0500/0524 14008KT P6SM VCSH FEW060 BKN090
     FM050300 26012KT P6SM BKN200=



000
FTUS45 KPSR 042338
TAFIWA
TAF
KIWA 042338Z 0500/0524 30010G18KT P6SM VCTS SCT070CB BKN120
     FM050100 14012G20KT P6SM -TSRA SCT040 BKN060CB
     FM050600 16009KT P6SM -SHRA VCTS SCT040 BKN080CB
     FM050900 12006KT P6SM VCSH SCT060 SCT100
     FM051600 17006KT P6SM SCT080
     FM052100 25008KT P6SM SCT100=



000
FTUS45 KPSR 042338
TAFIWA
TAF
KIWA 042338Z 0500/0524 30010G18KT P6SM VCTS SCT070CB BKN120
     FM050100 14012G20KT P6SM -TSRA SCT040 BKN060CB
     FM050600 16009KT P6SM -SHRA VCTS SCT040 BKN080CB
     FM050900 12006KT P6SM VCSH SCT060 SCT100
     FM051600 17006KT P6SM SCT080
     FM052100 25008KT P6SM SCT100=



000
FTUS45 KPSR 042338
TAFIPL
TAF
KIPL 042338Z 0500/0524 14008KT P6SM VCSH FEW060 BKN090
     FM050300 26012KT P6SM BKN200=



000
FTUS45 KPSR 042338
TAFPHX
TAF
KPHX 042338Z 0500/0524 27010G18KT P6SM VCTS FEW050 SCT060CB BKN120
     FM050500 22008KT P6SM -SHRA VCTS SCT050 BKN070CB OVC100
     FM050800 14010KT P6SM VCSH SCT050 BKN080 BKN120
     FM051700 19006KT P6SM SCT060 SCT100
     FM052200 26009KT P6SM SCT100=



000
FTUS45 KPSR 042338
TAFBLH
TAF
KBLH 042338Z 0500/0524 19012G18KT P6SM VCTS SCT060CB BKN080
     FM050200 21012KT P6SM FEW120 BKN200=



000
FTUS45 KPSR 042338
TAFIWA
TAF
KIWA 042338Z 0500/0524 30010G18KT P6SM VCTS SCT070CB BKN120
     FM050100 14012G20KT P6SM -TSRA SCT040 BKN060CB
     FM050600 16009KT P6SM -SHRA VCTS SCT040 BKN080CB
     FM050900 12006KT P6SM VCSH SCT060 SCT100
     FM051600 17006KT P6SM SCT080
     FM052100 25008KT P6SM SCT100=



000
FTUS45 KPSR 042153 AAB
TAFPHX
TAF AMD
KPHX 042153Z 0422/0518 22012G20KT P6SM VCTS BKN080CB OVC180
      TEMPO 0422/0424 VRB20G33KT -TSRA SCT050 BKN070CB
     FM050000 27010KT P6SM VCTS BKN060CB
     FM050500 15008KT P6SM -SHRA VCTS SCT050 BKN070CB OVC100=



000
FTUS45 KPSR 042153 AAB
TAFPHX
TAF AMD
KPHX 042153Z 0422/0518 22012G20KT P6SM VCTS BKN080CB OVC180
      TEMPO 0422/0424 VRB20G33KT -TSRA SCT050 BKN070CB
     FM050000 27010KT P6SM VCTS BKN060CB
     FM050500 15008KT P6SM -SHRA VCTS SCT050 BKN070CB OVC100=



000
FTUS45 KPSR 042115 AAA
TAFPHX
TAF AMD
KPHX 042115Z 0421/0518 22012G20KT P6SM VCTS SCT045 BKN080CB OVC180
     FM042300 27010KT P6SM -TSRA BKN060CB
     FM050500 15008KT P6SM -SHRA VCTS SCT050 BKN070CB OVC100=



000
FTUS45 KPSR 042115 AAA
TAFPHX
TAF AMD
KPHX 042115Z 0421/0518 22012G20KT P6SM VCTS SCT045 BKN080CB OVC180
     FM042300 27010KT P6SM -TSRA BKN060CB
     FM050500 15008KT P6SM -SHRA VCTS SCT050 BKN070CB OVC100=



000
FTUS45 KPSR 041917 AAA
TAFBLH
TAF AMD
KBLH 041917Z 0419/0518 20007KT P6SM VCSH SCT070 BKN120
     FM042000 19012G18KT P6SM VCTS SCT060CB BKN080
     FM050200 21012KT P6SM FEW120 BKN200=



000
FTUS45 KPSR 041917 AAA
TAFBLH
TAF AMD
KBLH 041917Z 0419/0518 20007KT P6SM VCSH SCT070 BKN120
     FM042000 19012G18KT P6SM VCTS SCT060CB BKN080
     FM050200 21012KT P6SM FEW120 BKN200=



000
FTUS45 KPSR 041742
TAFIWA
TAF
KIWA 041742Z 0418/0518 29008KT P6SM VCSH SCT070 SCT120
     FM041930 27012G20KT P6SM VCTS SCT045 SCT070CB SCT100
     FM050000 18010KT P6SM -TSRA SCT040 BKN060CB
     FM050600 16007KT P6SM -SHRA VCTS SCT040 BKN080CB=



000
FTUS45 KPSR 041742
TAFIWA
TAF
KIWA 041742Z 0418/0518 29008KT P6SM VCSH SCT070 SCT120
     FM041930 27012G20KT P6SM VCTS SCT045 SCT070CB SCT100
     FM050000 18010KT P6SM -TSRA SCT040 BKN060CB
     FM050600 16007KT P6SM -SHRA VCTS SCT040 BKN080CB=



000
FTUS45 KPSR 041742
TAFIPL
TAF
KIPL 041742Z 0418/0518 14008KT P6SM VCSH FEW060 BKN090
     FM050300 26012KT P6SM BKN200=



000
FTUS45 KPSR 041742
TAFBLH
TAF
KBLH 041742Z 0418/0518 15014KT P6SM SCT120 BKN200
     FM050200 21012KT P6SM FEW120 BKN200=



000
FTUS45 KPSR 041742
TAFPHX
TAF
KPHX 041742Z 0418/0518 25006KT P6SM VCSH SCT080 SCT120 SCT200
     FM042100 20012G20KT P6SM VCTS SCT045 SCT080CB BKN120
     FM042300 27010KT P6SM -TSRA BKN060CB
     FM050500 15008KT P6SM -SHRA VCTS SCT050 BKN070CB OVC100=



000
FTUS45 KPSR 041742
TAFIWA
TAF
KIWA 041742Z 0418/0518 29008KT P6SM VCSH SCT070 SCT120
     FM041930 27012G20KT P6SM VCTS SCT045 SCT070CB SCT100
     FM050000 18010KT P6SM -TSRA SCT040 BKN060CB
     FM050600 16007KT P6SM -SHRA VCTS SCT040 BKN080CB=



000
FTUS45 KPSR 041453 AAB
TAFIWA
TAF AMD
KIWA 041453Z 0415/0512 02008KT P6SM VCSH BKN070 BKN100
     FM041800 27012G20KT P6SM VCTS SCT045 BKN070CB
     FM050000 30010KT P6SM -TSRA SCT040 BKN060CB
     FM050600 16007KT P6SM VCSH SCT040 BKN080=



000
FTUS45 KPSR 041453 AAB
TAFIWA
TAF AMD
KIWA 041453Z 0415/0512 02008KT P6SM VCSH BKN070 BKN100
     FM041800 27012G20KT P6SM VCTS SCT045 BKN070CB
     FM050000 30010KT P6SM -TSRA SCT040 BKN060CB
     FM050600 16007KT P6SM VCSH SCT040 BKN080=



000
FTUS45 KPSR 041453 AAB
TAFIWA
TAF AMD
KIWA 041453Z 0415/0512 02008KT P6SM VCSH BKN070 BKN100
     FM041800 27012G20KT P6SM VCTS SCT045 BKN070CB
     FM050000 30010KT P6SM -TSRA SCT040 BKN060CB
     FM050600 16007KT P6SM VCSH SCT040 BKN080=



000
FTUS45 KPSR 041452 AAB
TAFPHX
TAF AMD
KPHX 041452Z 0415/0512 27008KT P6SM FEW080 SCT100 BKN220
     FM041700 23011KT P6SM VCSH SCT080 SCT120 BKN200
     FM042100 27012G20KT P6SM VCTS SCT045 BKN080CB
     FM050000 27010KT P6SM -TSRA BKN060CB
     FM050800 15008KT P6SM VCSH SCT050 BKN080=



000
FTUS45 KPSR 041202 AAA
TAFIWA
TAF AMD
KIWA 041202Z 0412/0512 35011KT P6SM VCSH SCT050 BKN070 OVC100
     FM041400 15006KT P6SM BKN070 OVC100
     FM042100 27012G20KT P6SM VCTS SCT045 BKN070CB
     FM050000 30010KT P6SM -TSRA SCT040 BKN060CB
     FM050600 16007KT P6SM VCSH SCT040 BKN080
      AMD LTD TO CLD VIS AND WIND TIL 041300=



000
FTUS45 KPSR 041202 AAA
TAFIWA
TAF AMD
KIWA 041202Z 0412/0512 35011KT P6SM VCSH SCT050 BKN070 OVC100
     FM041400 15006KT P6SM BKN070 OVC100
     FM042100 27012G20KT P6SM VCTS SCT045 BKN070CB
     FM050000 30010KT P6SM -TSRA SCT040 BKN060CB
     FM050600 16007KT P6SM VCSH SCT040 BKN080
      AMD LTD TO CLD VIS AND WIND TIL 041300=



000
FTUS45 KPSR 041202 AAA
TAFIWA
TAF AMD
KIWA 041202Z 0412/0512 35011KT P6SM VCSH SCT050 BKN070 OVC100
     FM041400 15006KT P6SM BKN070 OVC100
     FM042100 27012G20KT P6SM VCTS SCT045 BKN070CB
     FM050000 30010KT P6SM -TSRA SCT040 BKN060CB
     FM050600 16007KT P6SM VCSH SCT040 BKN080
      AMD LTD TO CLD VIS AND WIND TIL 041300=



000
FTUS45 KPSR 041202 AAA
TAFIWA
TAF AMD
KIWA 041202Z 0412/0512 35011KT P6SM VCSH SCT050 BKN070 OVC100
     FM041400 15006KT P6SM BKN070 OVC100
     FM042100 27012G20KT P6SM VCTS SCT045 BKN070CB
     FM050000 30010KT P6SM -TSRA SCT040 BKN060CB
     FM050600 16007KT P6SM VCSH SCT040 BKN080
      AMD LTD TO CLD VIS AND WIND TIL 041300=



000
FTUS45 KPSR 041148 AAA
TAFPHX
TAF AMD
KPHX 041148Z 0412/0512 09010KT P6SM -SHRA SCT060 OVC120
      TEMPO 0412/0413 VRB12G22KT 5SM TSRA BKN060 OVC090CB
     FM041500 VRB05KT P6SM VCSH SCT050 BKN080 OVC100
     FM042100 27012G20KT P6SM VCTS SCT045 BKN080CB
     FM050000 27010KT P6SM -TSRA BKN060CB
     FM050800 15008KT P6SM VCSH SCT050 BKN080=



000
FTUS45 KPSR 041120
TAFPHX
TAF
KPHX 041120Z 0412/0512 09010KT P6SM -SHRA SCT060 OVC120
      TEMPO 0412/0415 BKN060 OVC090
     FM041500 VRB05KT P6SM VCSH SCT050 BKN080 OVC100
     FM042100 27012G20KT P6SM VCTS SCT045 BKN080CB
     FM050000 27010KT P6SM -TSRA BKN060CB
     FM050800 15008KT P6SM VCSH SCT050 BKN080=



000
FTUS45 KPSR 041120
TAFIWA
TAF
KIWA 041120Z 0412/0512 12010KT P6SM -SHRA SCT050 OVC090
     FM041400 15006KT P6SM BKN070 OVC100
     FM042100 27012G20KT P6SM VCTS SCT045 BKN070CB
     FM050000 30010KT P6SM -TSRA SCT040 BKN060CB
     FM050600 16007KT P6SM VCSH SCT040 BKN080
      AMD LTD TO CLD VIS AND WIND TIL 041300=



000
FTUS45 KPSR 041120
TAFIWA
TAF
KIWA 041120Z 0412/0512 12010KT P6SM -SHRA SCT050 OVC090
     FM041400 15006KT P6SM BKN070 OVC100
     FM042100 27012G20KT P6SM VCTS SCT045 BKN070CB
     FM050000 30010KT P6SM -TSRA SCT040 BKN060CB
     FM050600 16007KT P6SM VCSH SCT040 BKN080
      AMD LTD TO CLD VIS AND WIND TIL 041300=



000
FTUS45 KPSR 041120
TAFIWA
TAF
KIWA 041120Z 0412/0512 12010KT P6SM -SHRA SCT050 OVC090
     FM041400 15006KT P6SM BKN070 OVC100
     FM042100 27012G20KT P6SM VCTS SCT045 BKN070CB
     FM050000 30010KT P6SM -TSRA SCT040 BKN060CB
     FM050600 16007KT P6SM VCSH SCT040 BKN080
      AMD LTD TO CLD VIS AND WIND TIL 041300=



000
FTUS45 KPSR 041120
TAFBLH
TAF
KBLH 041120Z 0412/0512 18008KT P6SM FEW120 SCT200
     FM041900 17014KT P6SM SCT120 BKN200
     FM050200 21012KT P6SM FEW120 BKN200=



000
FTUS45 KPSR 041120
TAFIWA
TAF
KIWA 041120Z 0412/0512 12010KT P6SM -SHRA SCT050 OVC090
     FM041400 15006KT P6SM BKN070 OVC100
     FM042100 27012G20KT P6SM VCTS SCT045 BKN070CB
     FM050000 30010KT P6SM -TSRA SCT040 BKN060CB
     FM050600 16007KT P6SM VCSH SCT040 BKN080
      AMD LTD TO CLD VIS AND WIND TIL 041300=



000
FTUS45 KPSR 041120
TAFIPL
TAF
KIPL 041120Z 0412/0512 15008KT P6SM FEW250
     FM041500 16008KT P6SM FEW150 SCT200
     FM050300 26012KT P6SM BKN200=



000
FTUS45 KPSR 041120
TAFBLH
TAF
KBLH 041120Z 0412/0512 18008KT P6SM FEW120 SCT200
     FM041900 17014KT P6SM SCT120 BKN200
     FM050200 21012KT P6SM FEW120 BKN200=



000
FTUS45 KPSR 041120
TAFPHX
TAF
KPHX 041120Z 0412/0512 09010KT P6SM -SHRA SCT060 OVC120
      TEMPO 0412/0415 BKN060 OVC090
     FM041500 VRB05KT P6SM VCSH SCT050 BKN080 OVC100
     FM042100 27012G20KT P6SM VCTS SCT045 BKN080CB
     FM050000 27010KT P6SM -TSRA BKN060CB
     FM050800 15008KT P6SM VCSH SCT050 BKN080=



000
FTUS45 KPSR 041120
TAFIPL
TAF
KIPL 041120Z 0412/0512 15008KT P6SM FEW250
     FM041500 16008KT P6SM FEW150 SCT200
     FM050300 26012KT P6SM BKN200=



000
FTUS45 KPSR 040851 AAB
TAFPHX
TAF AMD
KPHX 040851Z 0409/0506 09010KT P6SM -SHRA SCT060 OVC090
      TEMPO 0409/0412 VRB12G25KT -TSRA SCT040 BKN060CB
     FM041500 VRB05KT P6SM SCT060 BKN080 OVC100
     FM042100 27012G20KT P6SM VCTS BKN080CB
     FM050000 27010KT P6SM -TSRA BKN060CB=



000
FTUS45 KPSR 040851 AAB
TAFPHX
TAF AMD
KPHX 040851Z 0409/0506 09010KT P6SM -SHRA SCT060 OVC090
      TEMPO 0409/0412 VRB12G25KT -TSRA SCT040 BKN060CB
     FM041500 VRB05KT P6SM SCT060 BKN080 OVC100
     FM042100 27012G20KT P6SM VCTS BKN080CB
     FM050000 27010KT P6SM -TSRA BKN060CB=



000
FTUS45 KPSR 040805 AAA
TAFIWA
TAF AMD
KIWA 040805Z 0408/0506 13010KT P6SM -SHRA BKN040 OVC070
      TEMPO 0408/0412 VRB15G30KT 5SM TSRA BKN035CB
     FM041500 18004KT P6SM BKN070 OVC100
     FM042200 27012G20KT P6SM VCTS BKN070CB
     FM050000 30010KT P6SM -TSRA BKN060CB
      AMD LTD TO CLD VIS AND WIND TIL 041300=



000
FTUS45 KPSR 040805 AAA
TAFIWA
TAF AMD
KIWA 040805Z 0408/0506 13010KT P6SM -SHRA BKN040 OVC070
      TEMPO 0408/0412 VRB15G30KT 5SM TSRA BKN035CB
     FM041500 18004KT P6SM BKN070 OVC100
     FM042200 27012G20KT P6SM VCTS BKN070CB
     FM050000 30010KT P6SM -TSRA BKN060CB
      AMD LTD TO CLD VIS AND WIND TIL 041300=



000
FTUS45 KPSR 040740 AAA
TAFPHX
TAF AMD
KPHX 040740Z 0408/0506 29010KT P6SM -SHRA BKN060 OVC120
      TEMPO 0408/0412 VRB12G25KT -TSRA SCT040 BKN060CB
     FM041500 VRB05KT P6SM SCT060 BKN080 OVC100
     FM042100 27012G20KT P6SM VCTS BKN080CB
     FM050000 27010KT P6SM -TSRA BKN060CB=



000
FTUS45 KPSR 040740 AAA
TAFPHX
TAF AMD
KPHX 040740Z 0408/0506 29010KT P6SM -SHRA BKN060 OVC120
      TEMPO 0408/0412 VRB12G25KT -TSRA SCT040 BKN060CB
     FM041500 VRB05KT P6SM SCT060 BKN080 OVC100
     FM042100 27012G20KT P6SM VCTS BKN080CB
     FM050000 27010KT P6SM -TSRA BKN060CB=



000
FTUS45 KPSR 040522
TAFIPL
TAF
KIPL 040522Z 0406/0506 17008KT P6SM SCT150 SCT250
     FM041500 16008KT P6SM SCT150 BKN200
     FM050300 26012KT P6SM BKN200=



000
FTUS45 KPSR 040522
TAFIWA
TAF
KIWA 040522Z 0406/0506 31010KT P6SM VCTS BKN070CB
     FM040800 21005KT P6SM -SHRA BKN040 OVC070
     FM041500 18004KT P6SM BKN070 OVC100
     FM042200 27012G20KT P6SM VCTS BKN070CB
     FM050000 30010KT P6SM -TSRA BKN060CB
      AMD LTD TO CLD VIS AND WIND TIL 041300=



000
FTUS45 KPSR 040522
TAFIWA
TAF
KIWA 040522Z 0406/0506 31010KT P6SM VCTS BKN070CB
     FM040800 21005KT P6SM -SHRA BKN040 OVC070
     FM041500 18004KT P6SM BKN070 OVC100
     FM042200 27012G20KT P6SM VCTS BKN070CB
     FM050000 30010KT P6SM -TSRA BKN060CB
      AMD LTD TO CLD VIS AND WIND TIL 041300=



000
FTUS45 KPSR 040522
TAFPHX
TAF
KPHX 040522Z 0406/0506 VRB04KT P6SM BKN080 OVC250
     FM040800 29010KT P6SM -SHRA SCT040 BKN060 OVC080
     FM041500 VRB05KT P6SM SCT060 BKN080 OVC100
     FM042100 27012G20KT P6SM VCTS BKN080CB
     FM050000 27010KT P6SM -TSRA BKN060CB=



000
FTUS45 KPSR 040522
TAFBLH
TAF
KBLH 040522Z 0406/0506 18008KT P6SM FEW120 SCT200
     FM041900 18012KT P6SM SCT120 BKN200
     FM050200 21012KT P6SM SCT200=



000
FTUS45 KPSR 040343 AAB
TAFPHX
TAF AMD
KPHX 040343Z 0404/0424 25009KT P6SM BKN100 BKN250
     FM040430 15010KT P6SM VCSH BKN100
     FM040600 VRB04KT P6SM BKN080 OVC250
     FM040900 29010KT P6SM -SHRA SCT040 BKN060 OVC080
     FM041500 VRB06KT P6SM SCT060 BKN080 OVC100
     FM042100 27010KT P6SM VCSH BKN080=



000
FTUS45 KPSR 040252 AAA
TAFPHX
TAF AMD
KPHX 040252Z 0403/0424 27012KT P6SM BKN100 BKN250
     FM040700 27010KT P6SM VCSH BKN080 OVC250
     FM040900 29010KT P6SM -SHRA SCT040 BKN060 OVC080
     FM041500 VRB06KT P6SM SCT060 BKN080 OVC100
     FM042100 27010KT P6SM VCSH BKN080=



000
FTUS45 KPSR 032320
TAFIWA
TAF
KIWA 032320Z 0400/0424 21012G18KT P6SM FEW100 SCT250
     FM040700 20010KT P6SM VCSH BKN070 OVC250
     FM040900 12005KT P6SM -SHRA BKN040 OVC070
     FM041500 18004KT P6SM BKN070 OVC100
     FM042200 27012KT P6SM VCSH BKN070
      AMD LTD TO CLD VIS AND WIND 0403/0413=



000
FTUS45 KPSR 032320
TAFBLH
TAF
KBLH 032320Z 0400/0424 19014KT P6SM FEW150
     FM040600 17008KT P6SM FEW120 SCT200
     FM041900 18012KT P6SM SCT120 BKN200=



000
FTUS45 KPSR 032320
TAFBLH
TAF
KBLH 032320Z 0400/0424 19014KT P6SM FEW150
     FM040600 17008KT P6SM FEW120 SCT200
     FM041900 18012KT P6SM SCT120 BKN200=



000
FTUS45 KPSR 032320
TAFPHX
TAF
KPHX 032320Z 0400/0424 16008G18KT P6SM FEW100 SCT250
      TEMPO 0400/0401 22007G18KT
     FM040100 27015KT P6SM BKN100 BKN250
     FM040700 27010KT P6SM VCSH BKN080 OVC250
     FM040900 29010KT P6SM -SHRA SCT040 BKN060 OVC080
     FM041500 VRB06KT P6SM SCT060 BKN080 OVC100
     FM042100 27010KT P6SM VCSH BKN080=



000
FTUS45 KPSR 032320
TAFIWA
TAF
KIWA 032320Z 0400/0424 21012G18KT P6SM FEW100 SCT250
     FM040700 20010KT P6SM VCSH BKN070 OVC250
     FM040900 12005KT P6SM -SHRA BKN040 OVC070
     FM041500 18004KT P6SM BKN070 OVC100
     FM042200 27012KT P6SM VCSH BKN070
      AMD LTD TO CLD VIS AND WIND 0403/0413=



000
FTUS45 KPSR 032320
TAFPHX
TAF
KPHX 032320Z 0400/0424 16008G18KT P6SM FEW100 SCT250
      TEMPO 0400/0401 22007G18KT
     FM040100 27015KT P6SM BKN100 BKN250
     FM040700 27010KT P6SM VCSH BKN080 OVC250
     FM040900 29010KT P6SM -SHRA SCT040 BKN060 OVC080
     FM041500 VRB06KT P6SM SCT060 BKN080 OVC100
     FM042100 27010KT P6SM VCSH BKN080=



000
FTUS45 KPSR 032320
TAFIWA
TAF
KIWA 032320Z 0400/0424 21012G18KT P6SM FEW100 SCT250
     FM040700 20010KT P6SM VCSH BKN070 OVC250
     FM040900 12005KT P6SM -SHRA BKN040 OVC070
     FM041500 18004KT P6SM BKN070 OVC100
     FM042200 27012KT P6SM VCSH BKN070
      AMD LTD TO CLD VIS AND WIND 0403/0413=



000
FTUS45 KPSR 032320
TAFIPL
TAF
KIPL 032320Z 0400/0424 14012G20KT P6SM FEW150
     FM040300 27012KT P6SM SCT150 SCT250
     FM041500 16008KT P6SM SCT150 BKN200=



000
FTUS45 KPSR 032320
TAFIPL
TAF
KIPL 032320Z 0400/0424 14012G20KT P6SM FEW150
     FM040300 27012KT P6SM SCT150 SCT250
     FM041500 16008KT P6SM SCT150 BKN200=



000
FTUS45 KPSR 032320
TAFIWA
TAF
KIWA 032320Z 0400/0424 21012G18KT P6SM FEW100 SCT250
     FM040700 20010KT P6SM VCSH BKN070 OVC250
     FM040900 12005KT P6SM -SHRA BKN040 OVC070
     FM041500 18004KT P6SM BKN070 OVC100
     FM042200 27012KT P6SM VCSH BKN070
      AMD LTD TO CLD VIS AND WIND 0403/0413=



000
FTUS45 KPSR 032135 AAA
TAFIPL
TAF AMD
KIPL 032135Z 0322/0418 24010KT P6SM FEW150 SCT250
     FM040300 16008KT P6SM SCT150 BKN200=



000
FTUS45 KPSR 032135 AAA
TAFIPL
TAF AMD
KIPL 032135Z 0322/0418 24010KT P6SM FEW150 SCT250
     FM040300 16008KT P6SM SCT150 BKN200=



000
FTUS45 KPSR 032024 AAA
TAFPHX
TAF AMD
KPHX 032024Z 0320/0418 16010KT P6SM FEW120 SCT160
      TEMPO 0321/0323 22011KT
     FM032300 27008KT P6SM FEW100 SCT250
     FM040200 26015KT P6SM BKN100 OVC250
     FM040900 29006KT P6SM VCSH SCT060 BKN080 OVC100
     FM041400 VRB06KT P6SM VCSH SCT040 BKN060 OVC080=



000
FTUS45 KPSR 031730
TAFIWA
TAF
KIWA 031730Z 0318/0418 VRB05KT P6SM SCT120
     FM032000 25009KT P6SM FEW120 SCT250
     FM040600 20004KT P6SM BKN100 BKN200
     FM040900 12005KT P6SM VCSH SCT060 OVC100
     FM041200 18004KT P6SM VCSH SCT030 BKN040 OVC070=



000
FTUS45 KPSR 031730
TAFBLH
TAF
KBLH 031730Z 0318/0418 18006KT P6SM SKC
     FM032000 19014KT P6SM FEW150
     FM040600 17008KT P6SM FEW120 SCT200=



000
FTUS45 KPSR 031730
TAFIPL
TAF
KIPL 031730Z 0318/0418 VRB05KT P6SM SKC
     FM031900 12011KT P6SM FEW150 SCT250
     FM040200 16008KT P6SM SCT150 BKN200=



000
FTUS45 KPSR 031730
TAFIWA
TAF
KIWA 031730Z 0318/0418 VRB05KT P6SM SCT120
     FM032000 25009KT P6SM FEW120 SCT250
     FM040600 20004KT P6SM BKN100 BKN200
     FM040900 12005KT P6SM VCSH SCT060 OVC100
     FM041200 18004KT P6SM VCSH SCT030 BKN040 OVC070=



000
FTUS45 KPSR 031730
TAFPHX
TAF
KPHX 031730Z 0318/0418 16007KT P6SM FEW120 SCT160
     FM032300 27008KT P6SM FEW100 SCT250
     FM040200 26015KT P6SM BKN100 OVC250
     FM040900 29006KT P6SM VCSH SCT060 BKN080 OVC100
     FM041400 VRB06KT P6SM VCSH SCT040 BKN060 OVC080=



000
FTUS45 KPSR 031455 AAA
TAFPHX
TAF AMD
KPHX 031455Z 0315/0412 10007KT P6SM FEW120 SCT160
     FM032200 27008KT P6SM FEW100 SCT250
     FM040200 26015KT P6SM BKN100 OVC250
     FM040900 29010KT P6SM VCSH SCT060 OVC100=



000
FTUS45 KPSR 031455 AAA
TAFPHX
TAF AMD
KPHX 031455Z 0315/0412 10007KT P6SM FEW120 SCT160
     FM032200 27008KT P6SM FEW100 SCT250
     FM040200 26015KT P6SM BKN100 OVC250
     FM040900 29010KT P6SM VCSH SCT060 OVC100=



000
FTUS45 KPSR 031125
TAFPHX
TAF
KPHX 031125Z 0312/0412 10007KT P6SM BKN150 BKN250
     FM032200 27008KT P6SM FEW120 SCT250
     FM040200 26015KT P6SM BKN100 OVC250
     FM040900 29010KT P6SM VCSH SCT060 OVC100=



000
FTUS45 KPSR 031125
TAFIPL
TAF
KIPL 031125Z 0312/0412 25005KT P6SM BKN150
     FM031500 14010KT P6SM SCT150 BKN250
     FM040200 16008KT P6SM SCT150 SCT250=



000
FTUS45 KPSR 031125
TAFIWA
TAF
KIWA 031125Z 0312/0412 14006KT P6SM BKN120
     FM032000 24007KT P6SM FEW120 SCT250
     FM040200 26012KT P6SM BKN100 OVC250
     FM040900 25008KT P6SM VCSH SCT060 OVC100
      AMD LTD TO CLD VIS AND WIND TIL 031300=



000
FTUS45 KPSR 031125
TAFIWA
TAF
KIWA 031125Z 0312/0412 14006KT P6SM BKN120
     FM032000 24007KT P6SM FEW120 SCT250
     FM040200 26012KT P6SM BKN100 OVC250
     FM040900 25008KT P6SM VCSH SCT060 OVC100
      AMD LTD TO CLD VIS AND WIND TIL 031300=



000
FTUS45 KPSR 031125
TAFBLH
TAF
KBLH 031125Z 0312/0412 18006KT P6SM BKN150
     FM031900 18014KT P6SM SCT150 BKN250
     FM040600 18010KT P6SM SCT120 SCT250=



000
FTUS45 KPSR 031125
TAFPHX
TAF
KPHX 031125Z 0312/0412 10007KT P6SM BKN150 BKN250
     FM032200 27008KT P6SM FEW120 SCT250
     FM040200 26015KT P6SM BKN100 OVC250
     FM040900 29010KT P6SM VCSH SCT060 OVC100=



000
FTUS45 KPSR 031125
TAFIPL
TAF
KIPL 031125Z 0312/0412 25005KT P6SM BKN150
     FM031500 14010KT P6SM SCT150 BKN250
     FM040200 16008KT P6SM SCT150 SCT250=



000
FTUS45 KPSR 031125
TAFIWA
TAF
KIWA 031125Z 0312/0412 14006KT P6SM BKN120
     FM032000 24007KT P6SM FEW120 SCT250
     FM040200 26012KT P6SM BKN100 OVC250
     FM040900 25008KT P6SM VCSH SCT060 OVC100
      AMD LTD TO CLD VIS AND WIND TIL 031300=



000
FTUS45 KPSR 031125
TAFIWA
TAF
KIWA 031125Z 0312/0412 14006KT P6SM BKN120
     FM032000 24007KT P6SM FEW120 SCT250
     FM040200 26012KT P6SM BKN100 OVC250
     FM040900 25008KT P6SM VCSH SCT060 OVC100
      AMD LTD TO CLD VIS AND WIND TIL 031300=



000
FTUS45 KPSR 031125
TAFBLH
TAF
KBLH 031125Z 0312/0412 18006KT P6SM BKN150
     FM031900 18014KT P6SM SCT150 BKN250
     FM040600 18010KT P6SM SCT120 SCT250=



000
FTUS45 KPSR 030908 AAA
TAFPHX
TAF AMD
KPHX 030908Z 0309/0406 10007KT P6SM BKN150 BKN250
     FM032200 27011KT P6SM FEW120 SCT250=



000
FTUS45 KPSR 030908 AAA
TAFPHX
TAF AMD
KPHX 030908Z 0309/0406 10007KT P6SM BKN150 BKN250
     FM032200 27011KT P6SM FEW120 SCT250=



000
FTUS45 KPSR 030520
TAFBLH
TAF
KBLH 030520Z 0306/0406 20012KT P6SM SKC
     FM030900 16006KT P6SM SCT150
     FM031900 21012KT P6SM SCT150 SCT250=



000
FTUS45 KPSR 030520
TAFIPL
TAF
KIPL 030520Z 0306/0406 24009KT P6SM SKC
     FM031200 14009KT P6SM SCT120
     FM040200 27009KT P6SM SCT150 SCT250=



000
FTUS45 KPSR 030520
TAFIWA
TAF
KIWA 030520Z 0306/0406 28008KT P6SM BKN120 BKN250
     FM030800 14006KT P6SM BKN120
     FM032000 31007KT P6SM FEW120 SCT250
      AMD LTD TO CLD VIS AND WIND TIL 031300=



000
FTUS45 KPSR 030520
TAFPHX
TAF
KPHX 030520Z 0306/0406 22010KT P6SM BKN150 BKN250
     FM030900 10007KT P6SM BKN150
     FM032200 27011KT P6SM FEW120 SCT250=



000
FTUS45 KPSR 030520
TAFIWA
TAF
KIWA 030520Z 0306/0406 28008KT P6SM BKN120 BKN250
     FM030800 14006KT P6SM BKN120
     FM032000 31007KT P6SM FEW120 SCT250
      AMD LTD TO CLD VIS AND WIND TIL 031300=



000
FTUS45 KPSR 030256 AAA
TAFPHX
TAF AMD
KPHX 030256Z 0303/0324 27010KT P6SM BKN120
     FM030900 10007KT P6SM SCT120 SCT250
     FM032200 27007KT P6SM FEW120 SCT250=



000
FTUS45 KPSR 030224 AAB
TAFIWA
TAF AMD
KIWA 030224Z 0302/0324 32006KT P6SM SCT150
     FM030300 24010KT P6SM BKN150
     FM030800 14006KT P6SM SCT120 SCT250
     FM032000 31007KT P6SM FEW120 SCT250
      AMD LTD TO CLD VIS AND WIND 0303/0313=



000
FTUS45 KPSR 030224 AAB
TAFIWA
TAF AMD
KIWA 030224Z 0302/0324 32006KT P6SM SCT150
     FM030300 24010KT P6SM BKN150
     FM030800 14006KT P6SM SCT120 SCT250
     FM032000 31007KT P6SM FEW120 SCT250
      AMD LTD TO CLD VIS AND WIND 0303/0313=



000
FTUS45 KPSR 030017 AAA
TAFIWA
TAF AMD
KIWA 030017Z 0300/0324 25012KT P6SM FEW120 SCT200
     FM030100 18008G18KT 6SM HZ BKN120
     FM030200 17007KT P6SM BKN120
     FM030600 14006KT P6SM SCT120 SCT250
     FM032000 31007KT P6SM FEW120 SCT250
      AMD LTD TO CLD VIS AND WIND 0303/0313=



000
FTUS45 KPSR 030017 AAA
TAFIWA
TAF AMD
KIWA 030017Z 0300/0324 25012KT P6SM FEW120 SCT200
     FM030100 18008G18KT 6SM HZ BKN120
     FM030200 17007KT P6SM BKN120
     FM030600 14006KT P6SM SCT120 SCT250
     FM032000 31007KT P6SM FEW120 SCT250
      AMD LTD TO CLD VIS AND WIND 0303/0313=



000
FTUS45 KPSR 030017 AAA
TAFIWA
TAF AMD
KIWA 030017Z 0300/0324 25012KT P6SM FEW120 SCT200
     FM030100 18008G18KT 6SM HZ BKN120
     FM030200 17007KT P6SM BKN120
     FM030600 14006KT P6SM SCT120 SCT250
     FM032000 31007KT P6SM FEW120 SCT250
      AMD LTD TO CLD VIS AND WIND 0303/0313=



000
FTUS45 KPSR 030017 AAA
TAFIWA
TAF AMD
KIWA 030017Z 0300/0324 25012KT P6SM FEW120 SCT200
     FM030100 18008G18KT 6SM HZ BKN120
     FM030200 17007KT P6SM BKN120
     FM030600 14006KT P6SM SCT120 SCT250
     FM032000 31007KT P6SM FEW120 SCT250
      AMD LTD TO CLD VIS AND WIND 0303/0313=



000
FTUS45 KPSR 022320
TAFIWA
TAF
KIWA 022320Z 0300/0324 25012KT P6SM FEW120 SCT200
     FM030100 24012KT P6SM BKN120
     FM030500 14006KT P6SM SCT120 SCT250
     FM032000 31007KT P6SM FEW120 SCT250
      AMD LTD TO CLD VIS AND WIND 0303/0313=



000
FTUS45 KPSR 022320
TAFBLH
TAF
KBLH 022320Z 0300/0324 18015KT P6SM FEW150
     FM030900 16006KT P6SM SCT150=



000
FTUS45 KPSR 022320
TAFIPL
TAF
KIPL 022320Z 0300/0324 11010KT P6SM SKC
     FM030300 24009KT P6SM FEW250
     FM031200 14007KT P6SM SCT150=



000
FTUS45 KPSR 022320
TAFIPL
TAF
KIPL 022320Z 0300/0324 11010KT P6SM SKC
     FM030300 24009KT P6SM FEW250
     FM031200 14007KT P6SM SCT150=



000
FTUS45 KPSR 022320
TAFIWA
TAF
KIWA 022320Z 0300/0324 25012KT P6SM FEW120 SCT200
     FM030100 24012KT P6SM BKN120
     FM030500 14006KT P6SM SCT120 SCT250
     FM032000 31007KT P6SM FEW120 SCT250
      AMD LTD TO CLD VIS AND WIND 0303/0313=



000
FTUS45 KPSR 022320
TAFPHX
TAF
KPHX 022320Z 0300/0324 28010KT P6SM FEW120 SCT200
     FM030100 27015KT P6SM BKN120
     FM030900 10007KT P6SM SCT120 SCT250
     FM032200 27007KT P6SM FEW120 SCT250=



000
FTUS45 KPSR 022320
TAFBLH
TAF
KBLH 022320Z 0300/0324 18015KT P6SM FEW150
     FM030900 16006KT P6SM SCT150=



000
FTUS45 KPSR 022320
TAFPHX
TAF
KPHX 022320Z 0300/0324 28010KT P6SM FEW120 SCT200
     FM030100 27015KT P6SM BKN120
     FM030900 10007KT P6SM SCT120 SCT250
     FM032200 27007KT P6SM FEW120 SCT250=



000
FTUS45 KPSR 022320
TAFIWA
TAF
KIWA 022320Z 0300/0324 25012KT P6SM FEW120 SCT200
     FM030100 24012KT P6SM BKN120
     FM030500 14006KT P6SM SCT120 SCT250
     FM032000 31007KT P6SM FEW120 SCT250
      AMD LTD TO CLD VIS AND WIND 0303/0313=



000
FTUS45 KPSR 022320
TAFIWA
TAF
KIWA 022320Z 0300/0324 25012KT P6SM FEW120 SCT200
     FM030100 24012KT P6SM BKN120
     FM030500 14006KT P6SM SCT120 SCT250
     FM032000 31007KT P6SM FEW120 SCT250
      AMD LTD TO CLD VIS AND WIND 0303/0313=



    US Dept of Commerce
    National Oceanic and Atmospheric Administration
    National Weather Service
    1325 East West Highway
    Silver Spring, MD 20910
    Page Author: NWS Internet Services Team
Disclaimer
Information Quality
Credits
Glossary
Privacy Policy
Freedom of Information Act (FOIA)
About Us
Career Opportunities